Dora Oldendorff — A8VG5 — position and weather

sailwx.info

Track history (hours):
 
Tides and Currents Weather Stations Pressure Air Temp Water Temp Dewpoint Dewpoint Depression Visibility Wind Speed Wind Dir Waves Ship Positions

Dora Oldendorff

Last reported at 2018-Feb-22 14:30 UTC. Time now 2018-Feb-23 01:07 UTC.
Position N 44°23' E 037°14'.

Length 178 m; draft 10.4 m.

Type: Cargo ship. MMSI: 636092556.

Date/timePositionNaut miles runAvg speedWind from/ knotsBaromVisibWave heightAir tempDewpointWater temp
2018-Feb-22 14:30N 44°23' E 037°14'1 0.8
2018-Feb-22 13:45N 44°23' E 037°15'1 0.8
2018-Feb-22 12:39N 44°24' E 037°16'0 0.9
2018-Feb-22 12:24N 44°24' E 037°16'1 0.8
2018-Feb-22 11:15N 44°24' E 037°18'0 0.7
2018-Feb-22 10:57N 44°24' E 037°18'0 0.8
2018-Feb-22 10:27N 44°24' E 037°18'1 0.7
2018-Feb-22 09:39N 44°24' E 037°19'0 0.6
2018-Feb-22 09:18N 44°24' E 037°19'0 0.6
2018-Feb-22 08:48N 44°24' E 037°20'1 0.6
2018-Feb-22 07:33N 44°25' E 037°21'0 0.6
2018-Feb-22 07:30N 44°25' E 037°21'1 0.6
2018-Feb-22 06:01N 44°25' E 037°22'0 0.7
2018-Feb-22 05:31N 44°25' E 037°23'0 0.7
2018-Feb-22 05:00N 44°25' E 037°23'0 0.7
2018-Feb-22 04:29N 44°25' E 037°24'0 0.6
2018-Feb-22 03:58N 44°25' E 037°24'0 0.4
2018-Feb-22 03:25N 44°25' E 037°24'0 0.4
2018-Feb-22 03:00N 44°25' E 037°25'0 0.4
2018-Feb-22 02:30N 44°25' E 037°25'0 0.5
2018-Feb-22 02:00N 44°25' E 037°25'0 0.6
2018-Feb-22 01:29N 44°25' E 037°26'0 0.7
2018-Feb-22 00:55N 44°25' E 037°26'0 0.9
2018-Feb-22 00:28N 44°25' E 037°27'0 1.0
2018-Feb-22 00:00N 44°25' E 037°28'1 1.0
2018-Feb-21 23:29N 44°25' E 037°28'0 1.0
2018-Feb-21 23:00N 44°25' E 037°29'1 1.0
2018-Feb-21 22:30N 44°25' E 037°30'1 1.0
2018-Feb-21 22:00N 44°25' E 037°30'1 1.1
2018-Feb-21 21:31N 44°25' E 037°31'1 1.2
2018-Feb-21 21:00N 44°25' E 037°32'1 1.3
2018-Feb-21 20:31N 44°25' E 037°33'1 1.4
2018-Feb-21 20:00N 44°26' E 037°34'1 1.4
2018-Feb-21 19:31N 44°26' E 037°35'1 1.4
2018-Feb-21 19:00N 44°26' E 037°36'1 1.4
2018-Feb-21 18:31N 44°26' E 037°37'1 1.4
2018-Feb-21 18:00N 44°26' E 037°38'1 1.3
2018-Feb-21 17:31N 44°26' E 037°39'1936.8
2018-Feb-21 17:00N 44°36' E 038°01'2140.9
2018-Feb-21 16:30N 44°25' E 037°36'510.6
2018-Feb-21 16:00N 44°23' E 037°29'511.0
2018-Feb-21 15:31N 44°21' E 037°23'611.2
2018-Feb-21 15:00N 44°19' E 037°15'4 0.6
2018-Feb-21 09:19N 44°20' E 037°10'4 1.1
2018-Feb-21 05:37N 44°22' E 037°15'0 1.0
2018-Feb-21 05:07N 44°22' E 037°16'4 0.9
2018-Feb-21 00:13N 44°24' E 037°22'3 0.9
2018-Feb-20 21:15N 44°25' E 037°25'0 0.9
2018-Feb-20 20:45N 44°25' E 037°26'1 0.9
2018-Feb-20 20:12N 44°26' E 037°26'0 1.0
2018-Feb-20 20:00N 44°26' E 037°26'1 0.9
2018-Feb-20 18:45N 44°26' E 037°28'0 1.0
2018-Feb-20 18:15N 44°26' E 037°29'0 1.0
2018-Feb-20 17:54N 44°26' E 037°29'0 1.0
2018-Feb-20 17:24N 44°26' E 037°30'0 0.9
2018-Feb-20 17:00N 44°27' E 037°30'1 1.0
2018-Feb-20 16:24N 44°27' E 037°31'0 0.7
2018-Feb-20 15:57N 44°27' E 037°32'1 2.8
2018-Feb-20 15:30N 44°26' E 037°30'510.3
2018-Feb-20 15:00N 44°23' E 037°25'6 2.6
2018-Feb-20 12:40N 44°19' E 037°18'5 1.2
2018-Feb-20 09:01N 44°22' E 037°23'0 1.2
2018-Feb-20 08:43N 44°22' E 037°23'0 1.2
2018-Feb-20 08:22N 44°23' E 037°23'0 1.2
2018-Feb-20 07:58N 44°23' E 037°24'1 1.2
2018-Feb-20 07:28N 44°23' E 037°24'1 1.2
2018-Feb-20 06:55N 44°24' E 037°25'1 1.2
2018-Feb-20 06:07N 44°25' E 037°26'0 1.2
2018-Feb-20 05:58N 44°25' E 037°26'1 1.1
2018-Feb-20 05:28N 44°25' E 037°27'1 1.1
2018-Feb-20 04:52N 44°26' E 037°27'1 0.9
2018-Feb-20 03:49N 44°26' E 037°28'0 0.8
2018-Feb-20 03:28N 44°26' E 037°28'1 0.7
2018-Feb-20 02:28N 44°27' E 037°29'0 0.7
2018-Feb-20 01:58N 44°27' E 037°30'0 0.7
2018-Feb-20 01:13N 44°27' E 037°30'0 0.7
2018-Feb-20 00:52N 44°27' E 037°31'0 0.6
2018-Feb-20 00:19N 44°27' E 037°31'0 0.7
2018-Feb-19 23:58N 44°27' E 037°32'0 0.7
2018-Feb-19 23:25N 44°27' E 037°32'0 0.8
2018-Feb-19 22:52N 44°27' E 037°33'0 0.8
2018-Feb-19 22:28N 44°27' E 037°33'0 0.8
2018-Feb-19 21:55N 44°27' E 037°34'0 0.8
2018-Feb-19 21:22N 44°27' E 037°34'0 0.8
2018-Feb-19 20:55N 44°27' E 037°35'0 0.9
2018-Feb-19 20:28N 44°27' E 037°35'2041.3
2018-Feb-19 19:59N 44°36' E 038°01'2322.9
2018-Feb-19 18:59N 44°23' E 037°34'9 2.4
2018-Feb-19 15:12N 44°15' E 037°29'4 1.0
2018-Feb-19 11:00N 44°18' E 037°32'1 0.9
2018-Feb-19 10:27N 44°19' E 037°32'1 0.9
2018-Feb-19 09:21N 44°20' E 037°33'0 0.9
2018-Feb-19 09:00N 44°20' E 037°33'1 1.0
2018-Feb-19 08:21N 44°20' E 037°33'0 1.1
2018-Feb-19 08:00N 44°21' E 037°34'1 1.0
2018-Feb-19 07:24N 44°21' E 037°34'0 1.0
2018-Feb-19 07:00N 44°22' E 037°34'1 0.9
2018-Feb-19 06:27N 44°22' E 037°35'0 0.8
2018-Feb-19 06:00N 44°22' E 037°35'0 0.7
2018-Feb-19 05:30N 44°23' E 037°35'0 0.2
2018-Feb-19 05:00N 44°23' E 037°35'4 8.1
2018-Feb-19 04:30N 44°24' E 037°29'  
2018-Feb-15 22:17N 37°44' E 024°18'1010.5
2018-Feb-15 21:19N 37°36' E 024°10'45711.1
2018-Feb-14 04:18N 36°18' E 014°47'411.7
2018-Feb-14 03:57N 36°20' E 014°42'511.8
2018-Feb-14 03:30N 36°22' E 014°36'611.7
2018-Feb-14 03:00N 36°23' E 014°29'611.7
2018-Feb-14 02:30N 36°25' E 014°23'611.7
2018-Feb-14 02:00N 36°27' E 014°15'611.7
2018-Feb-14 01:30N 36°29' E 014°09'  
Track history (hours):
 
Tides and Currents Weather Stations Pressure Air Temp Water Temp Dewpoint Dewpoint Depression Visibility Wind Speed Wind Dir Waves Ship Positions

Dora Oldendorff

Last reported at 2018-Feb-22 14:30 UTC. Time now 2018-Feb-23 01:07 UTC.
Position N 44°23' E 037°14'.

Length 178 m; draft 10.4 m.

Type: Cargo ship. MMSI: 636092556.

Date/timePositionNaut miles runAvg speedWind from/ knotsBaromVisibWave heightAir tempDewpointWater temp
2018-Feb-22 14:30N 44°23' E 037°14'1 0.8
2018-Feb-22 13:45N 44°23' E 037°15'1 0.8
2018-Feb-22 12:39N 44°24' E 037°16'0 0.9
2018-Feb-22 12:24N 44°24' E 037°16'1 0.8
2018-Feb-22 11:15N 44°24' E 037°18'0 0.7
2018-Feb-22 10:57N 44°24' E 037°18'0 0.8
2018-Feb-22 10:27N 44°24' E 037°18'1 0.7
2018-Feb-22 09:39N 44°24' E 037°19'0 0.6
2018-Feb-22 09:18N 44°24' E 037°19'0 0.6
2018-Feb-22 08:48N 44°24' E 037°20'1 0.6
2018-Feb-22 07:33N 44°25' E 037°21'0 0.6
2018-Feb-22 07:30N 44°25' E 037°21'1 0.6
2018-Feb-22 06:01N 44°25' E 037°22'0 0.7
2018-Feb-22 05:31N 44°25' E 037°23'0 0.7
2018-Feb-22 05:00N 44°25' E 037°23'0 0.7
2018-Feb-22 04:29N 44°25' E 037°24'0 0.6
2018-Feb-22 03:58N 44°25' E 037°24'0 0.4
2018-Feb-22 03:25N 44°25' E 037°24'0 0.4
2018-Feb-22 03:00N 44°25' E 037°25'0 0.4
2018-Feb-22 02:30N 44°25' E 037°25'0 0.5
2018-Feb-22 02:00N 44°25' E 037°25'0 0.6
2018-Feb-22 01:29N 44°25' E 037°26'0 0.7
2018-Feb-22 00:55N 44°25' E 037°26'0 0.9
2018-Feb-22 00:28N 44°25' E 037°27'0 1.0
2018-Feb-22 00:00N 44°25' E 037°28'1 1.0
2018-Feb-21 23:29N 44°25' E 037°28'0 1.0
2018-Feb-21 23:00N 44°25' E 037°29'1 1.0
2018-Feb-21 22:30N 44°25' E 037°30'1 1.0
2018-Feb-21 22:00N 44°25' E 037°30'1 1.1
2018-Feb-21 21:31N 44°25' E 037°31'1 1.2
2018-Feb-21 21:00N 44°25' E 037°32'1 1.3
2018-Feb-21 20:31N 44°25' E 037°33'1 1.4
2018-Feb-21 20:00N 44°26' E 037°34'1 1.4
2018-Feb-21 19:31N 44°26' E 037°35'1 1.4
2018-Feb-21 19:00N 44°26' E 037°36'1 1.4
2018-Feb-21 18:31N 44°26' E 037°37'1 1.4
2018-Feb-21 18:00N 44°26' E 037°38'1 1.3
2018-Feb-21 17:31N 44°26' E 037°39'1936.8
2018-Feb-21 17:00N 44°36' E 038°01'2140.9
2018-Feb-21 16:30N 44°25' E 037°36'510.6
2018-Feb-21 16:00N 44°23' E 037°29'511.0
2018-Feb-21 15:31N 44°21' E 037°23'611.2
2018-Feb-21 15:00N 44°19' E 037°15'4 0.6
2018-Feb-21 09:19N 44°20' E 037°10'4 1.1
2018-Feb-21 05:37N 44°22' E 037°15'0 1.0
2018-Feb-21 05:07N 44°22' E 037°16'4 0.9
2018-Feb-21 00:13N 44°24' E 037°22'3 0.9
2018-Feb-20 21:15N 44°25' E 037°25'0 0.9
2018-Feb-20 20:45N 44°25' E 037°26'1 0.9
2018-Feb-20 20:12N 44°26' E 037°26'0 1.0
2018-Feb-20 20:00N 44°26' E 037°26'1 0.9
2018-Feb-20 18:45N 44°26' E 037°28'0 1.0
2018-Feb-20 18:15N 44°26' E 037°29'0 1.0
2018-Feb-20 17:54N 44°26' E 037°29'0 1.0
2018-Feb-20 17:24N 44°26' E 037°30'0 0.9
2018-Feb-20 17:00N 44°27' E 037°30'1 1.0
2018-Feb-20 16:24N 44°27' E 037°31'0 0.7
2018-Feb-20 15:57N 44°27' E 037°32'1 2.8
2018-Feb-20 15:30N 44°26' E 037°30'510.3
2018-Feb-20 15:00N 44°23' E 037°25'6 2.6
2018-Feb-20 12:40N 44°19' E 037°18'5 1.2
2018-Feb-20 09:01N 44°22' E 037°23'0 1.2
2018-Feb-20 08:43N 44°22' E 037°23'0 1.2
2018-Feb-20 08:22N 44°23' E 037°23'0 1.2
2018-Feb-20 07:58N 44°23' E 037°24'1 1.2
2018-Feb-20 07:28N 44°23' E 037°24'1 1.2
2018-Feb-20 06:55N 44°24' E 037°25'1 1.2
2018-Feb-20 06:07N 44°25' E 037°26'0 1.2
2018-Feb-20 05:58N 44°25' E 037°26'1 1.1
2018-Feb-20 05:28N 44°25' E 037°27'1 1.1
2018-Feb-20 04:52N 44°26' E 037°27'1 0.9
2018-Feb-20 03:49N 44°26' E 037°28'0 0.8
2018-Feb-20 03:28N 44°26' E 037°28'1 0.7
2018-Feb-20 02:28N 44°27' E 037°29'0 0.7
2018-Feb-20 01:58N 44°27' E 037°30'0 0.7
2018-Feb-20 01:13N 44°27' E 037°30'0 0.7
2018-Feb-20 00:52N 44°27' E 037°31'0 0.6
2018-Feb-20 00:19N 44°27' E 037°31'0 0.7
2018-Feb-19 23:58N 44°27' E 037°32'0 0.7
2018-Feb-19 23:25N 44°27' E 037°32'0 0.8
2018-Feb-19 22:52N 44°27' E 037°33'0 0.8
2018-Feb-19 22:28N 44°27' E 037°33'0 0.8
2018-Feb-19 21:55N 44°27' E 037°34'0 0.8
2018-Feb-19 21:22N 44°27' E 037°34'0 0.8
2018-Feb-19 20:55N 44°27' E 037°35'0 0.9
2018-Feb-19 20:28N 44°27' E 037°35'2041.3
2018-Feb-19 19:59N 44°36' E 038°01'2322.9
2018-Feb-19 18:59N 44°23' E 037°34'9 2.4
2018-Feb-19 15:12N 44°15' E 037°29'4 1.0
2018-Feb-19 11:00N 44°18' E 037°32'1 0.9
2018-Feb-19 10:27N 44°19' E 037°32'1 0.9
2018-Feb-19 09:21N 44°20' E 037°33'0 0.9
2018-Feb-19 09:00N 44°20' E 037°33'1 1.0
2018-Feb-19 08:21N 44°20' E 037°33'0 1.1
2018-Feb-19 08:00N 44°21' E 037°34'1 1.0
2018-Feb-19 07:24N 44°21' E 037°34'0 1.0
2018-Feb-19 07:00N 44°22' E 037°34'1 0.9
2018-Feb-19 06:27N 44°22' E 037°35'0 0.8
2018-Feb-19 06:00N 44°22' E 037°35'0 0.7
2018-Feb-19 05:30N 44°23' E 037°35'0 0.2
2018-Feb-19 05:00N 44°23' E 037°35'4 8.1
2018-Feb-19 04:30N 44°24' E 037°29'  
2018-Feb-15 22:17N 37°44' E 024°18'1010.5
2018-Feb-15 21:19N 37°36' E 024°10'45711.1
2018-Feb-14 04:18N 36°18' E 014°47'411.7
2018-Feb-14 03:57N 36°20' E 014°42'511.8
2018-Feb-14 03:30N 36°22' E 014°36'611.7
2018-Feb-14 03:00N 36°23' E 014°29'611.7
2018-Feb-14 02:30N 36°25' E 014°23'611.7
2018-Feb-14 02:00N 36°27' E 014°15'611.7
2018-Feb-14 01:30N 36°29' E 014°09'  

Dump ship's entire track history